createdAt,value
2018-05-11T00:01:56.777Z,79.70
2018-05-11T00:04:24.973Z,79.30
2018-05-11T00:06:52.544Z,79.30
2018-05-11T00:09:20.634Z,79.30
2018-05-11T00:11:48.589Z,79.70
2018-05-11T00:14:16.677Z,80.10
2018-05-11T00:16:44.221Z,79.80
2018-05-11T00:19:12.001Z,79.70
2018-05-11T00:21:39.615Z,79.70
2018-05-11T00:24:07.605Z,79.40
2018-05-11T00:26:35.191Z,80.10
2018-05-11T00:29:02.834Z,80.80
2018-05-11T00:31:30.425Z,82.50
2018-05-11T00:33:58.822Z,82.90
2018-05-11T00:36:27.185Z,84.10
2018-05-11T00:38:54.931Z,85.10
2018-05-11T00:41:22.515Z,83.00
2018-05-11T00:43:50.618Z,82.50
2018-05-11T00:46:18.240Z,81.50
2018-05-11T00:48:46.229Z,81.60
2018-05-11T00:51:14.201Z,81.80
2018-05-11T00:53:42.173Z,82.00
2018-05-11T00:56:09.764Z,81.90
2018-05-11T00:58:37.721Z,82.10
2018-05-11T01:01:05.304Z,82.10
2018-05-11T01:03:33.272Z,82.30
2018-05-11T01:06:00.825Z,83.30
2018-05-11T01:08:28.513Z,82.80
2018-05-11T01:10:57.693Z,82.80
2018-05-11T01:13:25.253Z,82.70
2018-05-11T01:15:54.461Z,82.90
2018-05-11T01:18:22.437Z,82.50
2018-05-11T01:20:50.384Z,82.60
2018-05-11T01:23:18.407Z,82.60
2018-05-11T01:25:46.813Z,82.80
2018-05-11T01:28:14.493Z,82.70
2018-05-11T01:30:42.136Z,82.60
2018-05-11T01:33:10.137Z,83.30
2018-05-11T01:35:38.133Z,83.10
2018-05-11T01:38:06.527Z,84.50
2018-05-11T01:40:34.966Z,86.60
2018-05-11T01:43:02.941Z,87.20
2018-05-11T01:45:30.969Z,87.50
2018-05-11T01:47:58.905Z,87.60
2018-05-11T01:50:26.564Z,88.60
2018-05-11T01:52:54.509Z,88.70
2018-05-11T01:55:22.484Z,89.80
2018-05-11T01:57:50.813Z,90.10
2018-05-11T02:00:18.402Z,90.20
2018-05-11T02:02:46.513Z,89.70
2018-05-11T02:05:14.229Z,89.70
2018-05-11T02:07:41.794Z,89.90
2018-05-11T02:10:09.369Z,90.30
2018-05-11T02:12:37.706Z,90.60
2018-05-11T02:15:06.442Z,90.50
2018-05-11T02:17:34.158Z,90.80
2018-05-11T02:20:01.821Z,91.30
2018-05-11T02:22:29.413Z,90.90
2018-05-11T02:24:57.389Z,91.40
2018-05-11T02:27:25.369Z,91.00
2018-05-11T02:29:53.062Z,90.20
2018-05-11T02:32:21.102Z,90.80
2018-05-11T02:34:49.059Z,90.70
2018-05-11T02:37:16.656Z,90.30
2018-05-11T02:39:44.214Z,89.50
2018-05-11T02:42:12.177Z,89.00
2018-05-11T02:44:40.132Z,89.20
2018-05-11T02:47:07.732Z,90.60
2018-05-11T02:49:35.707Z,91.40
2018-05-11T02:52:03.924Z,91.80
2018-05-11T02:54:31.525Z,91.50
2018-05-11T02:56:59.096Z,90.80
2018-05-11T02:59:26.675Z,90.40
2018-05-11T03:01:54.997Z,91.30
2018-05-11T03:04:22.689Z,90.80
2018-05-11T03:06:51.019Z,90.90
2018-05-11T03:09:19.857Z,91.60
2018-05-11T03:14:17.372Z,90.80
2018-05-11T03:16:46.069Z,90.50
2018-05-11T03:19:13.781Z,89.90
2018-05-11T03:21:42.840Z,90.10
2018-05-11T03:24:10.819Z,89.30
2018-05-11T03:26:38.441Z,90.50
2018-05-11T03:29:06.014Z,91.20
2018-05-11T03:31:33.601Z,90.90
2018-05-11T03:34:01.575Z,90.30
2018-05-11T03:36:29.188Z,90.00
2018-05-11T03:38:56.781Z,90.30
2018-05-11T03:41:24.352Z,90.80
2018-05-11T03:43:52.300Z,90.40
2018-05-11T03:46:20.035Z,90.90
2018-05-11T03:48:47.715Z,91.40
2018-05-11T03:51:15.359Z,91.20
2018-05-11T03:53:43.015Z,90.40
2018-05-11T03:56:11.070Z,90.00
2018-05-11T03:58:38.689Z,90.50
2018-05-11T04:01:18.255Z,91.00
2018-05-11T04:06:59.138Z,90.30
2018-05-11T04:09:27.504Z,91.20
2018-05-11T04:11:55.880Z,91.10
2018-05-11T04:14:24.306Z,90.40
2018-05-11T04:16:51.899Z,91.00
2018-05-11T04:19:21.041Z,91.70
2018-05-11T04:21:48.628Z,91.20
2018-05-11T04:24:16.948Z,91.10
2018-05-11T04:26:44.975Z,91.50
2018-05-11T04:29:13.307Z,92.70
2018-05-11T04:31:41.285Z,91.90
2018-05-11T04:34:09.249Z,91.60
2018-05-11T04:36:37.237Z,91.60
2018-05-11T04:39:05.315Z,91.90
2018-05-11T04:41:32.911Z,91.80
2018-05-11T04:44:00.593Z,92.00
2018-05-11T04:46:28.565Z,92.30
2018-05-11T04:48:56.542Z,92.50
2018-05-11T04:51:24.863Z,93.10
2018-05-11T04:53:52.457Z,92.40
2018-05-11T04:56:20.072Z,92.70
2018-05-11T04:58:47.637Z,92.60
2018-05-11T05:01:16.357Z,92.70
2018-05-11T05:03:43.917Z,92.50
2018-05-11T05:06:11.509Z,92.00
2018-05-11T05:08:39.085Z,92.00
2018-05-11T05:11:06.677Z,91.70
2018-05-11T05:13:34.305Z,92.00
2018-05-11T05:16:02.681Z,92.50
2018-05-11T05:18:31.209Z,91.10
2018-05-11T05:20:59.262Z,91.20
2018-05-11T05:23:27.025Z,92.00
2018-05-11T05:25:54.595Z,91.50
2018-05-11T05:28:22.641Z,91.50
2018-05-11T05:30:50.284Z,91.00
2018-05-11T05:33:18.729Z,90.90
2018-05-11T05:35:46.716Z,91.30
2018-05-11T05:38:14.699Z,91.50
2018-05-11T05:40:42.282Z,90.90
2018-05-11T05:43:09.918Z,91.20
2018-05-11T05:45:37.580Z,90.00
2018-05-11T05:48:06.059Z,90.70
2018-05-11T05:50:34.042Z,90.30
2018-05-11T05:53:01.706Z,90.60
2018-05-11T05:55:30.432Z,90.60
2018-05-11T05:57:58.410Z,90.60
2018-05-11T06:00:26.409Z,89.90
2018-05-11T06:02:53.997Z,89.00
2018-05-11T06:05:22.344Z,87.30
2018-05-11T06:07:49.934Z,87.30
2018-05-11T06:10:18.386Z,86.70
2018-05-11T06:12:45.957Z,85.90
2018-05-11T06:15:14.357Z,84.50
2018-05-11T06:17:42.146Z,85.10
2018-05-11T06:20:09.743Z,87.10
2018-05-11T06:22:37.325Z,85.00
2018-05-11T06:25:05.366Z,86.40
2018-05-11T06:27:33.352Z,86.80
2018-05-11T06:30:00.926Z,87.10
2018-05-11T06:32:28.659Z,85.10
2018-05-11T06:34:56.219Z,82.20
2018-05-11T06:37:23.805Z,82.60
2018-05-11T06:39:51.367Z,81.60
2018-05-11T06:42:18.968Z,83.30
2018-05-11T06:44:47.321Z,81.70
2018-05-11T06:47:15.443Z,81.20
2018-05-11T06:49:43.558Z,82.90
2018-05-11T06:52:12.006Z,82.10
2018-05-11T06:54:40.737Z,81.60
2018-05-11T06:57:09.077Z,82.30
2018-05-11T06:59:36.714Z,80.50
2018-05-11T07:02:04.272Z,80.90
2018-05-11T07:04:32.001Z,76.90
2018-05-11T07:07:00.392Z,78.30
2018-05-11T07:09:28.010Z,77.80
2018-05-11T07:11:56.556Z,74.60
2018-05-11T07:14:24.657Z,76.10
2018-05-11T07:16:52.235Z,76.60
2018-05-11T07:19:19.794Z,75.50
2018-05-11T07:21:48.145Z,76.00
2018-05-11T07:24:15.702Z,77.00
2018-05-11T07:26:43.543Z,72.90
2018-05-11T07:29:11.508Z,73.30
2018-05-11T07:31:39.990Z,70.70
2018-05-11T07:34:07.605Z,71.00
2018-05-11T07:36:35.976Z,65.00
2018-05-11T07:39:03.547Z,67.00
2018-05-11T07:41:31.945Z,68.60
2018-05-11T07:44:00.424Z,68.10
2018-05-11T07:46:28.888Z,64.30
2018-05-11T07:48:57.217Z,67.80
2018-05-11T07:51:24.871Z,62.10
2018-05-11T07:53:52.446Z,62.70
2018-05-11T07:56:20.009Z,58.40
2018-05-11T07:58:47.601Z,59.40
2018-05-11T08:01:15.956Z,59.70
2018-05-11T08:03:43.562Z,58.10
2018-05-11T08:06:11.234Z,60.90
2018-05-11T08:08:38.850Z,61.30
2018-05-11T08:11:06.426Z,62.40
2018-05-11T08:13:34.898Z,63.90
2018-05-11T08:16:03.334Z,65.30
2018-05-11T08:18:31.026Z,67.00
2018-05-11T08:20:58.610Z,67.40
2018-05-11T08:23:26.290Z,58.40
2018-05-11T08:25:53.917Z,58.80
2018-05-11T08:28:22.301Z,61.50
2018-05-11T08:30:50.707Z,63.60
2018-05-11T08:33:18.441Z,62.70
2018-05-11T08:35:46.830Z,60.70
2018-05-11T08:38:14.493Z,59.90
2018-05-11T08:40:42.201Z,59.00
2018-05-11T08:43:09.765Z,55.00
2018-05-11T08:45:37.367Z,56.60
2018-05-11T08:48:05.729Z,61.10
2018-05-11T08:50:34.139Z,65.80
2018-05-11T08:53:01.805Z,63.40
2018-05-11T08:55:29.409Z,62.40
2018-05-11T08:57:56.979Z,60.50
2018-05-11T09:00:25.347Z,62.50
2018-05-11T09:02:52.960Z,64.40
2018-05-11T09:05:21.339Z,64.00
2018-05-11T09:07:49.297Z,64.70
2018-05-11T09:10:16.884Z,63.20
2018-05-11T09:12:44.461Z,61.60
2018-05-11T09:15:12.080Z,62.00
2018-05-11T09:17:40.105Z,60.70
2018-05-11T09:20:07.808Z,61.90
2018-05-11T09:22:36.187Z,60.20
2018-05-11T09:25:03.754Z,58.80
2018-05-11T09:27:31.349Z,59.60
2018-05-11T09:29:58.926Z,57.40
2018-05-11T09:32:27.285Z,58.30
2018-05-11T09:34:54.865Z,57.40
2018-05-11T09:37:23.242Z,54.00
2018-05-11T09:39:51.607Z,51.60
2018-05-11T09:42:19.314Z,51.50
2018-05-11T09:44:46.875Z,50.20
2018-05-11T09:47:14.471Z,50.00
2018-05-11T09:49:42.042Z,51.50
2018-05-11T09:52:09.661Z,47.80
2018-05-11T09:54:37.266Z,50.20
2018-05-11T09:57:04.837Z,49.60
2018-05-11T09:59:33.341Z,48.50
2018-05-11T10:02:00.900Z,48.40
2018-05-11T10:04:28.517Z,49.00
2018-05-11T10:06:56.101Z,49.30
2018-05-11T10:09:23.788Z,47.20
2018-05-11T10:11:51.358Z,45.70
2018-05-11T10:14:18.940Z,46.50
2018-05-11T10:16:46.523Z,44.60
2018-05-11T10:19:14.113Z,44.30
2018-05-11T10:21:41.678Z,47.10
2018-05-11T10:24:09.297Z,45.90
2018-05-11T10:26:37.637Z,48.90
2018-05-11T10:29:05.446Z,48.80
2018-05-11T10:31:32.993Z,44.30
2018-05-11T10:34:01.439Z,46.70
2018-05-11T10:36:29.894Z,46.60
2018-05-11T10:38:57.567Z,46.60
2018-05-11T10:41:25.174Z,48.80
2018-05-11T10:43:53.543Z,45.60
2018-05-11T10:46:21.142Z,45.60
2018-05-11T10:48:48.804Z,46.40
2018-05-11T10:51:17.138Z,46.40
2018-05-11T10:53:44.748Z,46.40
2018-05-11T10:56:12.341Z,45.30
2018-05-11T10:58:39.897Z,49.30
2018-05-11T11:01:07.529Z,52.50
2018-05-11T11:03:35.201Z,52.00
2018-05-11T11:06:02.844Z,54.30
2018-05-11T11:08:30.537Z,55.80
2018-05-11T11:10:58.149Z,55.40
2018-05-11T11:13:25.829Z,52.50
2018-05-11T11:15:53.423Z,53.50
2018-05-11T11:18:21.017Z,52.90
2018-05-11T11:20:49.356Z,54.80
2018-05-11T11:23:16.947Z,54.80
2018-05-11T11:25:45.270Z,53.40
2018-05-11T11:28:12.861Z,53.40
2018-05-11T11:30:40.547Z,52.80
2018-05-11T11:33:09.055Z,51.60
2018-05-11T11:35:36.645Z,51.60
2018-05-11T11:38:04.241Z,50.80
2018-05-11T11:40:32.618Z,53.20
2018-05-11T11:43:00.333Z,53.10
2018-05-11T11:45:28.019Z,50.20
2018-05-11T11:47:55.623Z,50.20
2018-05-11T11:50:23.211Z,51.00
2018-05-11T11:52:50.803Z,53.50
2018-05-11T11:55:18.395Z,53.50
2018-05-11T11:57:45.972Z,52.00
2018-05-11T12:00:13.566Z,51.70
2018-05-11T12:02:41.130Z,52.80
2018-05-11T12:05:08.738Z,53.30
2018-05-11T12:07:36.301Z,54.00
2018-05-11T12:10:04.015Z,53.60
2018-05-11T12:12:31.649Z,53.20
2018-05-11T12:14:59.269Z,54.90
2018-05-11T12:17:26.829Z,52.60
2018-05-11T12:19:54.502Z,52.70
2018-05-11T12:22:22.153Z,57.10
2018-05-11T12:24:49.845Z,55.10
2018-05-11T12:27:17.426Z,54.50
2018-05-11T12:29:45.185Z,52.50
2018-05-11T12:32:12.779Z,51.50
2018-05-11T12:34:41.186Z,53.00
2018-05-11T12:37:08.749Z,53.50
2018-05-11T12:39:36.370Z,54.80
2018-05-11T12:42:04.774Z,53.00
2018-05-11T12:44:32.436Z,53.10
2018-05-11T12:47:00.089Z,55.20
2018-05-11T12:49:27.771Z,51.70
2018-05-11T12:51:55.443Z,52.20
2018-05-11T12:54:23.048Z,49.30
2018-05-11T12:56:51.426Z,49.90
2018-05-11T12:59:19.835Z,50.70
2018-05-11T13:01:47.393Z,50.60
2018-05-11T13:04:14.981Z,49.50
2018-05-11T13:06:42.552Z,50.10
2018-05-11T13:09:10.261Z,48.30
2018-05-11T13:11:37.842Z,49.30
2018-05-11T13:14:05.477Z,49.50
2018-05-11T13:16:33.197Z,50.00
2018-05-11T13:19:00.916Z,47.70
2018-05-11T13:21:28.485Z,48.10
2018-05-11T13:23:56.121Z,49.70
2018-05-11T13:26:23.712Z,51.30
2018-05-11T13:28:51.351Z,50.60
2018-05-11T13:31:19.013Z,53.40
2018-05-11T13:33:46.677Z,50.00
2018-05-11T13:36:14.289Z,52.70
2018-05-11T13:38:41.901Z,52.40
2018-05-11T13:41:09.581Z,54.10
2018-05-11T13:43:37.162Z,54.50
2018-05-11T13:46:04.893Z,54.50
2018-05-11T13:48:32.513Z,53.50
2018-05-11T13:51:00.881Z,54.40
2018-05-11T13:53:29.391Z,52.40
2018-05-11T13:55:56.998Z,51.90
2018-05-11T13:58:24.586Z,52.00
2018-05-11T14:00:52.964Z,50.40
2018-05-11T14:03:21.321Z,51.20
2018-05-11T14:05:48.927Z,51.10
2018-05-11T14:08:16.589Z,53.20
2018-05-11T14:10:44.281Z,50.60
2018-05-11T14:13:11.849Z,50.60
2018-05-11T14:15:39.455Z,51.50
2018-05-11T14:18:07.037Z,51.90
2018-05-11T14:20:34.678Z,50.90
2018-05-11T14:23:02.237Z,51.80
2018-05-11T14:25:30.000Z,53.20
2018-05-11T14:27:57.665Z,53.90
2018-05-11T14:30:25.322Z,51.70
2018-05-11T14:32:53.007Z,51.60
2018-05-11T14:35:20.572Z,52.30
2018-05-11T14:37:48.173Z,52.50
2018-05-11T14:40:16.505Z,51.90
2018-05-11T14:42:44.135Z,51.90
2018-05-11T14:45:11.710Z,52.80
2018-05-11T14:47:39.331Z,52.20
2018-05-11T14:50:07.662Z,50.60
2018-05-11T14:52:35.254Z,50.60
2018-05-11T14:55:03.570Z,54.60
2018-05-11T14:57:31.158Z,54.60
2018-05-11T14:59:58.813Z,53.90
2018-05-11T15:02:26.427Z,53.70
2018-05-11T15:04:53.989Z,53.70
2018-05-11T15:07:21.677Z,54.10
2018-05-11T15:09:49.341Z,55.50
2018-05-11T15:12:16.917Z,54.40
2018-05-11T15:14:44.519Z,54.80
2018-05-11T15:17:12.849Z,55.80
2018-05-11T15:19:40.554Z,55.80
2018-05-11T15:22:08.881Z,53.00
2018-05-11T15:24:36.509Z,53.00
2018-05-11T15:27:04.213Z,52.60
2018-05-11T15:29:31.826Z,53.40
2018-05-11T15:31:59.395Z,53.80
2018-05-11T15:34:27.004Z,55.70
2018-05-11T15:36:54.569Z,54.10
2018-05-11T15:39:22.190Z,52.20
2018-05-11T15:41:50.001Z,54.20
2018-05-11T15:44:18.382Z,52.50
2018-05-11T15:46:46.774Z,52.10
2018-05-11T15:49:14.654Z,52.00
2018-05-11T15:51:42.317Z,51.50
2018-05-11T15:54:09.890Z,53.00
2018-05-11T15:56:37.537Z,53.40
2018-05-11T15:59:05.206Z,54.80
2018-05-11T16:01:33.512Z,54.60
2018-05-11T16:04:01.080Z,54.50
2018-05-11T16:06:28.680Z,53.80
2018-05-11T16:08:56.244Z,54.40
2018-05-11T16:11:23.909Z,54.20
2018-05-11T16:13:51.481Z,55.00
2018-05-11T16:16:19.103Z,56.00
2018-05-11T16:18:46.682Z,57.60
2018-05-11T16:21:14.344Z,56.30
2018-05-11T16:23:41.910Z,55.10
2018-05-11T16:26:09.525Z,54.10
2018-05-11T16:28:37.912Z,55.80
2018-05-11T16:31:06.245Z,56.60
2018-05-11T16:33:33.914Z,56.50
2018-05-11T16:36:01.489Z,55.90
2018-05-11T16:38:29.077Z,56.40
2018-05-11T16:40:56.647Z,55.10
2018-05-11T16:43:24.374Z,54.50
2018-05-11T16:45:51.940Z,56.30
2018-05-11T16:48:20.353Z,55.40
2018-05-11T16:50:47.947Z,55.30
2018-05-11T16:53:15.568Z,56.00
2018-05-11T16:55:43.174Z,56.00
2018-05-11T16:58:10.946Z,56.00
2018-05-11T17:00:39.423Z,56.70
2018-05-11T17:03:06.993Z,56.70
2018-05-11T17:05:35.519Z,56.10
2018-05-11T17:08:03.103Z,56.10
2018-05-11T17:10:30.689Z,56.90
2018-05-11T17:12:59.206Z,56.10
2018-05-11T17:15:26.971Z,56.20
2018-05-11T17:17:54.545Z,57.90
2018-05-11T17:20:22.154Z,57.80
2018-05-11T17:22:50.667Z,57.00
2018-05-11T17:25:18.166Z,56.90
2018-05-11T17:27:45.770Z,56.90
2018-05-11T17:30:13.362Z,57.60
2018-05-11T17:32:40.994Z,57.90
2018-05-11T17:35:08.707Z,57.90
2018-05-11T17:37:36.322Z,57.80
2018-05-11T17:40:03.946Z,57.70
2018-05-11T17:42:32.442Z,58.60
2018-05-11T17:45:00.813Z,59.90
2018-05-11T17:47:29.180Z,58.40
2018-05-11T17:49:57.700Z,58.10
2018-05-11T17:52:25.358Z,58.10
2018-05-11T17:54:52.933Z,57.90
2018-05-11T17:57:20.538Z,59.00
2018-05-11T17:59:48.165Z,58.90
2018-05-11T18:02:15.826Z,58.90
2018-05-11T18:04:43.645Z,59.00
2018-05-11T18:07:11.226Z,58.70
2018-05-11T18:09:38.818Z,59.10
2018-05-11T18:12:06.590Z,59.60
2018-05-11T18:14:34.201Z,60.00
2018-05-11T18:17:01.821Z,60.20
2018-05-11T18:19:30.190Z,60.40
2018-05-11T18:21:57.766Z,60.40
2018-05-11T18:24:26.177Z,61.20
2018-05-11T18:26:53.853Z,61.20
2018-05-11T18:29:21.477Z,61.30
2018-05-11T18:31:49.077Z,60.90
2018-05-11T18:34:16.771Z,60.70
2018-05-11T18:36:44.355Z,62.00
2018-05-11T18:39:11.958Z,61.20
2018-05-11T18:41:39.532Z,61.30
2018-05-11T18:44:07.135Z,62.00
2018-05-11T18:46:34.709Z,62.90
2018-05-11T18:49:02.296Z,62.90
2018-05-11T18:51:29.949Z,62.80
2018-05-11T18:53:58.567Z,64.30
2018-05-11T18:56:26.828Z,65.40
2018-05-11T18:58:54.431Z,65.40
2018-05-11T19:01:22.106Z,64.50
2018-05-11T19:03:49.705Z,64.40
2018-05-11T19:06:17.380Z,63.20
2018-05-11T19:08:44.914Z,62.00
2018-05-11T19:11:12.526Z,62.00
2018-05-11T19:13:40.093Z,61.90
2018-05-11T19:16:08.233Z,62.10
2018-05-11T19:18:36.198Z,62.60
2018-05-11T19:21:04.822Z,62.80
2018-05-11T19:23:33.201Z,62.70
2018-05-11T19:26:00.921Z,63.20
2018-05-11T19:28:28.473Z,64.10
2018-05-11T19:30:56.080Z,64.80
2018-05-11T19:33:23.841Z,65.40
2018-05-11T19:35:51.501Z,65.00
2018-05-11T19:38:19.106Z,65.50
2018-05-11T19:40:46.678Z,65.80
2018-05-11T19:43:14.297Z,67.10
2018-05-11T19:45:42.041Z,65.70
2018-05-11T19:48:09.702Z,67.60
2018-05-11T19:50:37.244Z,67.90
2018-05-11T19:53:04.862Z,65.90
2018-05-11T19:55:32.438Z,66.30
2018-05-11T19:58:00.042Z,66.90
2018-05-11T20:00:27.627Z,68.00
2018-05-11T20:02:55.202Z,67.10
2018-05-11T20:05:22.825Z,68.20
2018-05-11T20:07:50.401Z,69.90
2018-05-11T20:10:18.645Z,67.80
2018-05-11T20:12:46.210Z,68.20
2018-05-11T20:15:13.839Z,68.80
2018-05-11T20:17:42.190Z,72.00
2018-05-11T20:20:09.801Z,71.90
2018-05-11T20:22:37.465Z,73.00
2018-05-11T20:28:09.645Z,74.20
2018-05-11T20:30:37.362Z,74.10
2018-05-11T20:33:05.146Z,75.10
2018-05-11T20:35:32.776Z,74.70
2018-05-11T20:38:00.438Z,75.30
2018-05-11T20:40:28.058Z,73.50
2018-05-11T20:42:56.421Z,72.90
2018-05-11T20:45:23.992Z,72.90
2018-05-11T20:47:51.632Z,72.40
2018-05-11T20:50:19.214Z,72.20
2018-05-11T20:52:46.794Z,72.40
2018-05-11T20:55:15.174Z,73.20
2018-05-11T20:57:42.791Z,73.20
2018-05-11T21:00:10.405Z,73.30
2018-05-11T21:02:37.989Z,75.00
2018-05-11T21:05:05.605Z,75.30
2018-05-11T21:07:33.296Z,74.80
2018-05-11T21:10:00.948Z,74.10
2018-05-11T21:12:28.605Z,75.50
2018-05-11T21:14:56.198Z,76.80
2018-05-11T21:17:23.801Z,77.90
2018-05-11T21:19:52.146Z,76.50
2018-05-11T21:22:19.877Z,76.40
2018-05-11T21:24:47.500Z,76.30
2018-05-11T21:27:15.859Z,75.90
2018-05-11T21:29:43.518Z,75.90
2018-05-11T21:32:11.120Z,76.60
2018-05-11T21:34:38.722Z,77.00
2018-05-11T21:37:06.347Z,78.10
2018-05-11T21:39:33.950Z,79.10
2018-05-11T21:42:01.542Z,77.60
2018-05-11T21:44:29.129Z,78.80
2018-05-11T21:46:56.776Z,79.50
2018-05-11T21:49:24.384Z,80.00
2018-05-11T21:51:52.054Z,79.00
2018-05-11T21:54:20.397Z,78.60
2018-05-11T21:56:49.059Z,77.90
2018-05-11T21:59:16.669Z,78.10
2018-05-11T22:01:44.258Z,79.10
2018-05-11T22:04:11.881Z,79.40
2018-05-11T22:06:39.602Z,79.70
2018-05-11T22:09:07.190Z,79.00
2018-05-11T22:11:34.999Z,79.10
2018-05-11T22:14:03.385Z,79.50
2018-05-11T22:16:31.040Z,79.50
2018-05-11T22:18:58.717Z,81.20
2018-05-11T22:21:26.289Z,82.70
2018-05-11T22:23:53.897Z,83.10
2018-05-11T22:26:22.324Z,83.80
2018-05-11T22:28:50.046Z,83.80
2018-05-11T22:31:18.565Z,83.70
2018-05-11T22:33:46.135Z,83.70
2018-05-11T22:36:13.705Z,83.90
2018-05-11T22:38:41.309Z,83.90
2018-05-11T22:41:09.683Z,82.20
2018-05-11T22:43:37.377Z,82.20
2018-05-11T22:46:05.662Z,83.60
2018-05-11T22:48:33.279Z,85.00
2018-05-11T22:51:01.634Z,87.00
2018-05-11T22:53:29.452Z,86.80
2018-05-11T22:55:57.025Z,87.00
2018-05-11T22:58:24.673Z,86.80
2018-05-11T23:00:52.532Z,85.10
2018-05-11T23:03:20.101Z,86.40
2018-05-11T23:05:47.708Z,84.40
2018-05-11T23:08:16.225Z,85.50
2018-05-11T23:10:43.977Z,85.50
2018-05-11T23:13:11.537Z,86.60
2018-05-11T23:15:39.113Z,88.10
2018-05-11T23:18:06.739Z,88.90
2018-05-11T23:20:35.092Z,89.30
2018-05-11T23:23:02.649Z,89.20
2018-05-11T23:25:30.390Z,88.80
2018-05-11T23:27:58.022Z,88.60
2018-05-11T23:30:25.621Z,89.30
2018-05-11T23:32:53.181Z,88.50
2018-05-11T23:35:20.773Z,89.00
2018-05-11T23:37:49.114Z,88.70
2018-05-11T23:40:16.752Z,88.70
2018-05-11T23:42:44.468Z,89.70
2018-05-11T23:45:12.902Z,90.20
2018-05-11T23:47:40.617Z,90.10
2018-05-11T23:50:09.229Z,90.60
2018-05-11T23:52:36.822Z,90.60
2018-05-11T23:55:05.921Z,90.80
2018-05-11T23:57:33.485Z,90.80
